GMTT

Ibn Batouta Airport

Tangier, Morocco
METAR GMTT 221530Z 34012KT 9000 FEW016 SCT200 22/14 Q1014 NOSIG
Observed Flight Rules
May-22 @ 15:30 UTC (19 minutes ago) Visual Flight Rules
Wind Visibility Clouds
340° at 12 knots 8,996 meters
  • Few at 1,600' AGL
  • Scattered at 20,000' AGL
Temperatures Readings
Current 22°C / 72°F
Dewpoint 14°C / 57°F
Humidity 61%
Altimeter 29.94" Hg
Pressure 1014 hPa
Elevation 21
METAR GMTT 221530Z 34012KT 9000 FEW016 SCT200 22/14 Q1014 NOSIG
Observed Flight Rules
May-22 @ 15:30 UTC
(19 minutes ago)
VFR
Wind Visibility
340° at 12 knots 8,996 meters
Clouds
  • Few at 1,600' AGL
  • Scattered at 20,000' AGL
Temperature Dewpoint
22°C / 72°F 14°C / 57°F
Humidity Altimeter Pressure
61% 29.94" Hg 1014 hPa